Time;durP1;ratioP1;P1;durP2;ratioP2;P2;SDS_P1;SDS_P2;PMS_P1;PMS_P2;Temp;Humidity;BMP_temperature;BMP_pressure;BME280_temperature;BME280_humidity;BME280_pressure;Samples;Min_cycle;Max_cycle;Signal;HPM_P1;HPM_P2
2022/08/05 00:01:32;;;;;;;;;9.50;9.50;;;30.12;97782.31;;;;119458;1186;25600;-61
2022/08/05 00:04:16;;;;;;;;;5.75;5.75;;;30.15;97781.86;;;;119433;1186;25254;-60
2022/08/05 00:06:45;;;;;;;;;10.33;10.33;;;30.11;97780.98;;;;119423;1186;25678;-64
2022/08/05 00:09:18;;;;;;;;;12.00;9.50;;;30.06;97780.04;;;;119422;1186;24889;-61
2022/08/05 00:11:48;;;;;;;;;11.50;10.00;;;30.02;97778.30;;;;119431;1186;25536;-65
2022/08/05 00:14:23;;;;;;;;;9.50;9.25;;;30.02;97778.25;;;;119450;1185;25052;-59
2022/08/05 00:16:56;;;;;;;;;14.75;11.00;;;30.00;97778.77;;;;119450;1186;25830;-60
2022/08/05 00:19:24;;;;;;;;;13.00;9.50;;;29.97;97779.86;;;;119453;1186;25100;-60
2022/08/05 00:22:07;;;;;;;;;8.00;8.00;;;29.98;97779.73;;;;119456;1186;25339;-61
2022/08/05 00:24:39;;;;;;;;;12.75;11.00;;;29.97;97778.80;;;;119408;1187;25381;-59
2022/08/05 00:27:09;;;;;;;;;10.25;10.25;;;29.93;97776.70;;;;119438;1186;26394;-59
2022/08/05 00:29:57;;;;;;;;;9.75;9.75;;;29.96;97780.80;;;;119452;1186;24810;-60
2022/08/05 00:32:27;;;;;;;;;12.50;11.50;;;29.94;97779.83;;;;119428;1186;25210;-60
2022/08/05 00:34:55;;;;;;;;;9.25;9.25;;;29.89;97781.67;;;;119423;1186;26330;-59
2022/08/05 00:37:34;;;;;;;;;9.67;9.67;;;29.91;97778.08;;;;119434;1187;24944;-60
2022/08/05 00:40:23;;;;;;;;;13.00;11.50;;;29.96;97771.91;;;;119415;1186;25856;-60
2022/08/05 00:42:57;;;;;;;;;10.50;10.50;;;29.96;97767.52;;;;119397;1187;24765;-59
2022/08/05 00:45:25;;;;;;;;;10.50;10.00;;;29.92;97770.42;;;;119441;1187;25025;-59
2022/08/05 00:48:11;;;;;;;;;10.25;9.25;;;29.92;97769.64;;;;119419;1186;25352;-60
2022/08/05 00:50:40;;;;;;;;;8.25;8.25;;;29.91;97772.23;;;;119430;1186;25273;-60
2022/08/05 00:53:11;;;;;;;;;10.00;9.00;;;29.87;97772.20;;;;119403;1186;25521;-60
2022/08/05 00:55:59;;;;;;;;;9.75;9.75;;;29.89;97772.84;;;;119395;1186;25626;-59
2022/08/05 00:58:27;;;;;;;;;10.25;8.25;;;29.87;97771.92;;;;119367;1186;26263;-59
2022/08/05 01:00:55;;;;;;;;;11.00;9.50;;;29.81;97769.17;;;;119360;1186;25652;-59
2022/08/05 01:03:24;;;;;;;;;8.67;8.67;;;29.77;97770.16;;;;119349;1186;25765;-59
2022/08/05 01:06:01;;;;;;;;;11.00;8.33;;;29.78;97772.27;;;;119434;1187;25198;-60
2022/08/05 01:08:33;;;;;;;;;10.50;10.50;;;29.77;97775.10;;;;119452;1186;25126;-60
2022/08/05 01:11:21;;;;;;;;;8.00;8.00;;;29.78;97774.05;;;;119432;1187;25143;-60
2022/08/05 01:14:26;;;;;;;;;10.75;9.00;;;29.82;97773.91;;;;119445;1187;25447;-60
2022/08/05 01:17:04;;;;;;;;;9.75;9.75;;;29.81;97769.88;;;;119406;1186;25832;-59
2022/08/05 01:19:42;;;;;;;;;9.50;8.00;;;29.73;97767.94;;;;119433;1187;25716;-60
2022/08/05 01:22:58;;;;;;;;;8.75;8.75;;;29.76;97770.17;;;;119422;1186;25677;-59
2022/08/05 01:25:53;;;;;;;;;10.00;10.00;;;29.83;97767.11;;;;119417;1186;24760;-59
2022/08/05 01:28:37;;;;;;;;;9.50;9.00;;;29.80;97765.25;;;;119467;1186;26158;-60
2022/08/05 01:31:27;;;;;;;;;9.50;9.25;;;29.76;97766.52;;;;119429;1187;25505;-59
2022/08/05 01:34:15;;;;;;;;;12.00;9.75;;;29.74;97765.27;;;;119457;1185;25241;-59
2022/08/05 01:36:55;;;;;;;;;10.25;8.50;;;29.72;97764.29;;;;119432;1187;25092;-60
2022/08/05 01:39:28;;;;;;;;;9.25;9.25;;;29.69;97765.27;;;;119416;1186;26254;-60
2022/08/05 01:42:18;;;;;;;;;10.00;9.25;;;29.73;97767.64;;;;119367;1186;24817;-60
2022/08/05 01:44:47;;;;;;;;;10.00;9.50;;;29.71;97768.39;;;;119410;1185;24967;-59
2022/08/05 01:47:23;;;;;;;;;8.00;8.00;;;29.69;97766.37;;;;119335;1187;25640;-59
2022/08/05 01:50:12;;;;;;;;;10.75;10.25;;;29.71;97764.96;;;;119432;1186;25248;-62
2022/08/05 01:52:44;;;;;;;;;11.50;10.25;;;29.70;97764.63;;;;119436;1186;25082;-60
2022/08/05 01:55:20;;;;;;;;;13.25;9.25;;;29.66;97761.00;;;;119419;1186;25074;-63
2022/08/05 01:57:50;;;;;;;;;11.25;9.25;;;29.63;97761.89;;;;119416;1185;26482;-64
2022/08/05 02:00:41;;;;;;;;;10.25;10.25;;;29.70;97764.52;;;;119407;1186;25657;-61
2022/08/05 02:03:24;;;;;;;;;11.00;9.50;;;29.67;97760.11;;;;119414;1187;25113;-59
2022/08/05 02:06:04;;;;;;;;;10.00;9.25;;;29.70;97759.91;;;;119438;1186;25691;-61
2022/08/05 02:08:52;;;;;;;;;8.50;8.50;;;29.74;97757.77;;;;119455;1187;25084;-60
2022/08/05 02:11:30;;;;;;;;;10.50;9.75;;;29.71;97756.26;;;;119474;1186;25279;-63
2022/08/05 02:14:23;;;;;;;;;9.75;9.25;;;29.65;97754.07;;;;119451;1186;25410;-60
2022/08/05 02:16:54;;;;;;;;;7.50;7.25;;;29.69;97758.09;;;;119452;1186;25160;-59
2022/08/05 02:19:45;;;;;;;;;11.50;10.25;;;29.66;97756.70;;;;119459;1187;25632;-60
2022/08/05 02:22:18;;;;;;;;;8.75;7.75;;;29.62;97754.32;;;;119436;1186;25259;-61
2022/08/05 02:25:04;;;;;;;;;7.00;6.25;;;29.61;97755.11;;;;119444;1186;24868;-61
2022/08/05 02:27:36;;;;;;;;;14.00;9.00;;;29.58;97755.09;;;;119464;1187;25058;-60
2022/08/05 02:30:28;;;;;;;;;9.25;8.50;;;29.60;97752.84;;;;119441;1186;26059;-62
2022/08/05 02:32:58;;;;;;;;;6.75;6.75;;;29.57;97748.57;;;;119450;1186;25564;-62
2022/08/05 02:35:27;;;;;;;;;9.00;9.00;;;29.50;97746.66;;;;119433;1186;24787;-61
2022/08/05 02:38:05;;;;;;;;;8.50;8.25;;;29.50;97746.71;;;;119453;1186;26159;-59
2022/08/05 02:40:38;;;;;;;;;10.00;8.25;;;29.49;97745.13;;;;119459;1186;25694;-60
2022/08/05 02:43:06;;;;;;;;;10.00;9.50;;;29.46;97748.48;;;;119433;1187;25000;-61
2022/08/05 02:45:35;;;;;;;;;9.50;7.75;;;29.42;97747.25;;;;119411;1187;25241;-61
2022/08/05 02:48:21;;;;;;;;;11.00;10.00;;;29.46;97746.08;;;;119412;1186;25145;-61
2022/08/05 02:51:00;;;;;;;;;9.25;8.75;;;29.47;97745.23;;;;119445;1186;25341;-60
2022/08/05 02:53:29;;;;;;;;;7.75;7.00;;;29.44;97745.20;;;;119459;1186;25188;-61
2022/08/05 02:56:10;;;;;;;;;11.25;9.50;;;29.43;97740.64;;;;119459;1186;25704;-59
2022/08/05 02:58:46;;;;;;;;;12.00;10.00;;;29.43;97741.46;;;;119434;1187;25391;-60
2022/08/05 03:01:23;;;;;;;;;10.50;8.75;;;29.40;97738.98;;;;119428;1185;24900;-59
2022/08/05 03:03:58;;;;;;;;;10.00;9.25;;;29.39;97742.95;;;;119434;1186;25076;-60
2022/08/05 03:06:30;;;;;;;;;9.00;9.00;;;29.39;97742.73;;;;119432;1187;25595;-59
2022/08/05 03:09:18;;;;;;;;;9.75;8.50;;;29.43;97743.86;;;;119442;1186;24994;-59
2022/08/05 03:12:06;;;;;;;;;8.25;6.75;;;29.46;97746.70;;;;119418;1186;25185;-59
2022/08/05 03:14:34;;;;;;;;;9.25;8.75;;;29.42;97747.55;;;;119441;1187;25553;-59
2022/08/05 03:17:12;;;;;;;;;10.67;10.00;;;29.42;97750.81;;;;119417;1186;25382;-60
2022/08/05 03:19:41;;;;;;;;;7.00;6.00;;;29.38;97748.27;;;;119417;1186;24959;-59
2022/08/05 03:22:13;;;;;;;;;10.75;8.00;;;29.35;97751.41;;;;119410;1186;25435;-61
2022/08/05 03:24:47;;;;;;;;;8.00;7.75;;;29.33;97752.40;;;;119413;1186;24782;-60
2022/08/05 03:27:19;;;;;;;;;11.25;11.25;;;29.33;97756.75;;;;119442;1187;24858;-60
2022/08/05 03:29:48;;;;;;;;;12.50;10.75;;;29.31;97752.69;;;;119413;1186;25426;-62
2022/08/05 03:32:36;;;;;;;;;9.75;9.75;;;29.37;97752.63;;;;119438;1186;25389;-68
2022/08/05 03:35:05;;;;;;;;;11.50;10.75;;;29.33;97753.40;;;;119421;1186;24807;-61
2022/08/05 03:37:35;;;;;;;;;10.00;9.25;;;29.29;97753.63;;;;119415;1187;25018;-61
2022/08/05 03:40:13;;;;;;;;;10.00;10.00;;;29.25;97752.91;;;;119411;1186;24885;-59
2022/08/05 03:42:51;;;;;;;;;11.50;10.00;;;29.30;97755.17;;;;119435;1187;25660;-59
2022/08/05 03:45:20;;;;;;;;;11.00;11.00;;;29.27;97758.30;;;;119471;1187;25455;-59
2022/08/05 03:47:50;;;;;;;;;10.50;10.50;;;29.25;97756.88;;;;119405;1186;25348;-60
2022/08/05 03:50:48;;;;;;;;;9.00;8.00;;;29.23;97754.86;;;;119415;1186;24944;-61
2022/08/05 03:53:55;;;;;;;;;14.00;9.25;;;29.29;97755.98;;;;119183;1187;25363;-60
2022/08/05 03:56:45;;;;;;;;;11.50;10.50;;;29.51;97758.35;;;;119416;1186;24750;-62
2022/08/05 03:59:19;;;;;;;;;6.25;4.50;;;29.42;97757.85;;;;119405;1186;25284;-65
2022/08/05 04:01:48;;;;;;;;;10.00;10.00;;;29.36;97757.31;;;;119428;1185;24810;-66
2022/08/05 04:04:19;;;;;;;;;11.25;9.00;;;29.31;97757.80;;;;119423;1186;25145;-59
2022/08/05 04:06:49;;;;;;;;;15.00;11.25;;;29.29;97759.41;;;;119417;1186;24955;-66
2022/08/05 04:09:18;;;;;;;;;15.75;11.50;;;29.30;97755.53;;;;119443;1187;25599;-62
2022/08/05 04:11:54;;;;;;;;;11.50;10.25;;;29.30;97752.15;;;;119427;1186;25143;-63
2022/08/05 04:14:26;;;;;;;;;18.25;14.50;;;29.30;97752.78;;;;119459;1186;25172;-70
2022/08/05 04:16:59;;;;;;;;;12.00;10.00;;;29.30;97749.63;;;;119448;1187;24821;-63
2022/08/05 04:19:28;;;;;;;;;11.75;10.00;;;29.28;97748.17;;;;119621;1186;25178;-63
2022/08/05 04:21:56;;;;;;;;;9.25;6.50;;;29.46;97746.31;;;;119762;1187;26883;-63
2022/08/05 04:24:39;;;;;;;;;15.75;12.25;;;29.89;97747.96;;;;119411;1186;25731;-63
2022/08/05 04:27:12;;;;;;;;;11.33;9.33;;;29.72;97748.31;;;;119415;1187;24852;-65
2022/08/05 04:29:41;;;;;;;;;10.75;9.00;;;29.56;97751.16;;;;119457;1184;25331;-66
2022/08/05 04:32:09;;;;;;;;;14.00;14.00;;;29.44;97753.66;;;;119425;1186;25247;-66
2022/08/05 04:34:37;;;;;;;;;15.75;12.00;;;29.35;97754.66;;;;119456;1186;26157;-67
2022/08/05 04:37:10;;;;;;;;;17.00;15.75;;;29.31;97751.55;;;;119489;1187;25307;-68
2022/08/05 04:39:39;;;;;;;;;18.75;15.50;;;29.39;97755.12;;;;119821;1186;25504;-67
2022/08/05 04:42:07;;;;;;;;;17.50;15.25;;;29.82;97755.21;;;;119459;1186;25232;-68
2022/08/05 04:44:35;;;;;;;;;19.50;15.00;;;29.66;97753.73;;;;119438;1186;25251;-67
2022/08/05 04:47:03;;;;;;;;;16.00;14.75;;;29.52;97750.55;;;;119441;1187;25166;-67
2022/08/05 04:49:38;;;;;;;;;15.50;13.00;;;29.44;97744.55;;;;119420;1186;25007;-66
2022/08/05 04:52:26;;;;;;;;;15.25;9.50;;;29.50;97746.86;;;;119455;1186;25234;-64
2022/08/05 04:54:55;;;;;;;;;11.50;10.75;;;29.49;97745.63;;;;119422;1185;24838;-67
2022/08/05 04:57:25;;;;;;;;;15.50;14.00;;;29.45;97743.41;;;;119455;1186;25009;-65
2022/08/05 04:59:56;;;;;;;;;14.50;14.25;;;29.45;97744.88;;;;119445;1185;25219;-65
2022/08/05 05:02:25;;;;;;;;;15.75;12.50;;;29.44;97740.97;;;;119421;1187;25419;-66
2022/08/05 05:05:08;;;;;;;;;18.00;15.25;;;29.51;97741.05;;;;119443;1186;25590;-67
2022/08/05 05:08:06;;;;;;;;;16.25;15.25;;;29.55;97737.44;;;;119445;1187;24759;-65
2022/08/05 05:10:54;;;;;;;;;17.50;14.50;;;29.65;97736.92;;;;119457;1187;26394;-66
2022/08/05 05:13:23;;;;;;;;;15.75;11.50;;;29.64;97734.82;;;;119760;1186;25144;-68
2022/08/05 05:15:51;;;;;;;;;19.75;15.75;;;29.97;97727.83;;;;119648;1186;25442;-69
2022/08/05 05:18:25;;;;;;;;;17.00;15.25;;;30.23;97730.70;;;;119419;1185;25449;-69
2022/08/05 05:21:02;;;;;;;;;26.75;19.00;;;30.06;97731.17;;;;119396;1186;25682;-69
2022/08/05 05:23:30;;;;;;;;;27.75;20.00;;;29.93;97728.59;;;;119348;1186;26202;-69
2022/08/05 05:26:18;;;;;;;;;20.75;18.25;;;29.91;97729.06;;;;119410;1186;25495;-69
2022/08/05 05:28:55;;;;;;;;;26.75;20.25;;;29.88;97726.91;;;;119410;1186;25004;-69
2022/08/05 05:31:23;;;;;;;;;19.25;16.50;;;29.82;97727.28;;;;119432;1186;25608;-67
2022/08/05 05:33:58;;;;;;;;;24.33;17.67;;;29.79;97724.80;;;;119426;1186;25485;-67
2022/08/05 05:36:30;;;;;;;;;19.75;16.25;;;29.78;97727.23;;;;119381;1187;25240;-68
2022/08/05 05:38:58;;;;;;;;;18.75;17.00;;;29.80;97725.24;;;;119451;1186;26068;-68
2022/08/05 05:41:26;;;;;;;;;18.75;16.50;;;29.75;97726.78;;;;119413;1186;25640;-68
2022/08/05 05:44:09;;;;;;;;;19.75;17.50;;;29.77;97727.66;;;;119426;1186;25258;-68
2022/08/05 05:46:57;;;;;;;;;19.75;13.75;;;29.84;97729.48;;;;119381;1186;25619;-68
2022/08/05 05:49:31;;;;;;;;;21.75;17.25;;;29.84;97728.00;;;;119380;1186;25774;-68
2022/08/05 05:52:00;;;;;;;;;19.75;16.00;;;29.79;97730.90;;;;119390;1187;26441;-68
2022/08/05 05:54:34;;;;;;;;;24.00;17.75;;;29.77;97730.98;;;;119453;1186;25060;-70
2022/08/05 05:57:18;;;;;;;;;20.25;17.75;;;29.81;97731.54;;;;119424;1186;24709;-72
2022/08/05 05:59:46;;;;;;;;;11.00;10.00;;;29.79;97728.64;;;;119319;1187;25860;-69
2022/08/05 06:02:16;;;;;;;;;20.00;15.75;;;29.75;97722.48;;;;119422;1187;26124;-70
2022/08/05 06:04:59;;;;;;;;;18.25;16.00;;;29.78;97723.27;;;;119434;1186;25293;-68
2022/08/05 06:07:30;;;;;;;;;14.75;13.75;;;29.77;97722.53;;;;119458;1186;25244;-68
2022/08/05 06:10:10;;;;;;;;;18.25;15.50;;;29.78;97726.08;;;;119454;1187;25426;-69
2022/08/05 06:12:39;;;;;;;;;10.25;7.75;;;29.77;97729.98;;;;119468;1186;25447;-65
2022/08/05 06:15:10;;;;;;;;;17.25;15.75;;;29.75;97732.02;;;;119403;1186;25418;-64
2022/08/05 06:17:50;;;;;;;;;15.00;13.25;;;29.83;97738.75;;;;119351;1184;25040;-70
2022/08/05 06:20:21;;;;;;;;;15.75;12.75;;;29.84;97739.05;;;;119351;1186;25438;-67
2022/08/05 06:22:48;;;;;;;;;9.75;7.75;;;29.84;97739.11;;;;119432;1187;24775;-68
2022/08/05 06:25:17;;;;;;;;;14.25;13.00;;;29.82;97737.30;;;;119420;1186;25803;-63
2022/08/05 06:28:04;;;;;;;;;13.50;11.25;;;29.91;97734.66;;;;119383;1186;25802;-67
2022/08/05 06:30:39;;;;;;;;;14.25;12.50;;;29.92;97736.91;;;;119390;1185;24890;-66
2022/08/05 06:33:08;;;;;;;;;11.00;10.25;;;29.92;97737.28;;;;119409;1186;25669;-68
2022/08/05 06:35:37;;;;;;;;;16.00;13.00;;;29.90;97738.44;;;;119363;1187;26080;-65
2022/08/05 06:38:25;;;;;;;;;13.00;10.75;;;29.94;97733.31;;;;119419;1186;24869;-66
2022/08/05 06:41:04;;;;;;;;;18.75;17.00;;;29.97;97734.60;;;;119428;1186;24704;-68
2022/08/05 06:43:35;;;;;;;;;18.00;15.50;;;29.96;97735.23;;;;119387;1186;25240;-70
2022/08/05 06:46:24;;;;;;;;;16.50;15.50;;;30.00;97735.56;;;;119394;1186;24929;-61
2022/08/05 06:48:57;;;;;;;;;14.50;12.75;;;30.02;97736.58;;;;119401;1186;25309;-64
2022/08/05 06:51:28;;;;;;;;;14.67;12.67;;;30.03;97740.09;;;;119420;1186;25416;-66
2022/08/05 06:53:58;;;;;;;;;15.75;13.00;;;29.99;97739.14;;;;119389;1187;25787;-63
2022/08/05 06:56:29;;;;;;;;;16.00;15.00;;;29.96;97741.44;;;;119383;1186;25537;-62
2022/08/05 06:59:05;;;;;;;;;16.25;12.75;;;29.92;97747.18;;;;119422;1187;25820;-62
2022/08/05 07:01:36;;;;;;;;;11.50;10.75;;;29.89;97747.67;;;;119395;1186;25460;-63
2022/08/05 07:04:08;;;;;;;;;10.75;10.00;;;29.88;97746.24;;;;119386;1187;25731;-65
2022/08/05 07:06:37;;;;;;;;;20.33;16.00;;;29.83;97748.55;;;;119425;1186;25760;-65
2022/08/05 07:09:05;;;;;;;;;16.75;15.00;;;29.83;97749.11;;;;119380;1186;25206;-59
2022/08/05 07:11:33;;;;;;;;;17.50;12.50;;;29.82;97748.06;;;;119382;1186;25124;-64
2022/08/05 07:16:59;;;;;;;;;18.75;14.50;;;29.79;97739.20;;;;119395;1186;24962;-73
2022/08/05 07:19:49;;;;;;;;;14.25;11.50;;;29.86;97738.05;;;;119405;1185;25592;-73
2022/08/05 07:22:37;;;;;;;;;18.33;17.00;;;29.94;97730.96;;;;119415;1187;24892;-57
2022/08/05 07:25:06;;;;;;;;;16.25;16.25;;;29.92;97730.38;;;;119396;1187;25484;-64
2022/08/05 07:27:55;;;;;;;;;17.00;15.00;;;29.94;97731.61;;;;119402;1186;25026;-65
2022/08/05 07:30:31;;;;;;;;;17.33;13.00;;;29.94;97725.73;;;;119402;1186;25300;-60
2022/08/05 07:33:02;;;;;;;;;15.00;15.00;;;29.90;97722.46;;;;119411;1186;25236;-65
2022/08/05 07:35:39;;;;;;;;;17.25;11.25;;;29.88;97722.75;;;;119398;1186;26280;-65
2022/08/05 07:38:27;;;;;;;;;17.00;15.25;;;29.97;97724.43;;;;119412;1186;25063;-66
2022/08/05 07:41:07;;;;;;;;;13.75;13.00;;;29.98;97723.59;;;;119430;1187;25775;-65
2022/08/05 07:43:56;;;;;;;;;16.25;15.25;;;30.04;97724.30;;;;119418;1186;25117;-61
2022/08/05 07:46:27;;;;;;;;;16.50;15.50;;;29.99;97722.96;;;;119376;1187;25907;-61
2022/08/05 07:48:57;;;;;;;;;17.00;16.00;;;29.98;97723.98;;;;119424;1186;25568;-60
2022/08/05 07:51:33;;;;;;;;;16.00;14.00;;;29.99;97725.32;;;;119382;1186;25263;-63
2022/08/05 07:54:07;;;;;;;;;15.75;15.00;;;29.96;97728.77;;;;119399;1186;25237;-64
2022/08/05 07:56:37;;;;;;;;;15.25;13.25;;;29.94;97728.54;;;;119386;1186;25422;-60
2022/08/05 07:59:25;;;;;;;;;14.00;13.25;;;30.05;97724.19;;;;119397;1187;25496;-61
2022/08/05 08:02:10;;;;;;;;;15.50;13.25;;;30.10;97726.70;;;;119400;1187;25407;-61
2022/08/05 08:04:45;;;;;;;;;18.75;17.25;;;30.09;97725.11;;;;119415;1186;25638;-61
2022/08/05 08:07:14;;;;;;;;;19.50;17.00;;;30.08;97724.36;;;;119425;1186;24779;-62
2022/08/05 08:09:42;;;;;;;;;16.50;13.50;;;30.07;97725.14;;;;119427;1186;25493;-66
2022/08/05 08:12:12;;;;;;;;;15.00;12.25;;;30.01;97722.58;;;;119450;1187;24817;-62
2022/08/05 08:15:00;;;;;;;;;13.75;12.75;;;30.06;97721.23;;;;119371;1186;25447;-61
2022/08/05 08:17:31;;;;;;;;;18.25;16.25;;;30.04;97714.83;;;;119409;1187;25557;-61
2022/08/05 08:19:59;;;;;;;;;17.75;15.75;;;30.02;97715.09;;;;119414;1187;25043;-59
2022/08/05 08:22:54;;;;;;;;;13.00;13.00;;;30.15;97712.90;;;;119403;1186;26210;-60
2022/08/05 08:25:22;;;;;;;;;20.75;17.25;;;30.16;97710.28;;;;119364;1186;24815;-58
2022/08/05 08:28:10;;;;;;;;;23.50;19.00;;;30.20;97703.52;;;;119397;1186;25700;-59
2022/08/05 08:30:45;;;;;;;;;17.00;15.00;;;30.21;97706.27;;;;119399;1187;25696;-60
2022/08/05 08:33:14;;;;;;;;;17.00;16.00;;;30.21;97702.66;;;;119392;1186;24919;-59
2022/08/05 08:35:43;;;;;;;;;19.50;16.25;;;30.26;97697.96;;;;119359;1187;25574;-59
2022/08/05 08:38:20;;;;;;;;;17.25;15.75;;;30.25;97693.60;;;;119337;1186;25064;-58
2022/08/05 08:41:08;;;;;;;;;18.00;15.50;;;30.31;97695.33;;;;119416;1184;26269;-59
2022/08/05 08:43:37;;;;;;;;;18.00;16.33;;;30.36;97693.86;;;;119404;1187;25241;-67
2022/08/05 08:46:28;;;;;;;;;19.25;17.75;;;30.46;97695.03;;;;119355;1186;25562;-63
2022/08/05 08:48:57;;;;;;;;;16.50;16.50;;;30.45;97691.82;;;;119382;1186;25241;-64
2022/08/05 08:51:54;;;;;;;;;18.50;16.50;;;30.48;97690.23;;;;119379;1187;25381;-71
2022/08/05 08:54:36;;;;;;;;;15.25;13.75;;;30.54;97688.13;;;;119393;1186;25540;-60
2022/08/05 08:57:06;;;;;;;;;17.00;16.75;;;30.50;97688.31;;;;119272;1187;25015;-65
2022/08/05 08:59:40;;;;;;;;;13.50;13.50;;;30.50;97687.04;;;;119343;1187;25642;-61
2022/08/05 09:02:14;;;;;;;;;16.75;14.75;;;30.51;97685.95;;;;119372;1186;25164;-63
2022/08/05 09:04:44;;;;;;;;;13.25;12.50;;;30.49;97685.00;;;;119371;1187;26333;-64
2022/08/05 09:07:33;;;;;;;;;14.75;13.25;;;30.56;97683.12;;;;119352;1186;25641;-65
2022/08/05 09:10:22;;;;;;;;;14.25;13.75;;;30.62;97682.42;;;;119373;1186;24990;-67
2022/08/05 09:12:55;;;;;;;;;16.25;16.00;;;30.62;97681.41;;;;119376;1186;25506;-66
2022/08/05 09:15:31;;;;;;;;;14.50;12.00;;;30.60;97672.39;;;;119331;1186;25429;-65
2022/08/05 09:18:08;;;;;;;;;13.75;13.25;;;30.58;97671.63;;;;119361;1186;26496;-62
2022/08/05 09:20:36;;;;;;;;;15.50;12.25;;;30.58;97671.91;;;;119393;1184;25655;-65
2022/08/05 09:23:13;;;;;;;;;15.00;15.00;;;30.55;97670.79;;;;119375;1186;26058;-65
2022/08/05 09:25:53;;;;;;;;;18.50;15.50;;;30.53;97665.56;;;;119381;1186;25316;-63
2022/08/05 09:28:32;;;;;;;;;17.75;14.00;;;30.54;97659.58;;;;119402;1184;25526;-64
2022/08/05 09:31:10;;;;;;;;;17.50;15.00;;;30.55;97658.02;;;;119352;1186;25413;-61
2022/08/05 09:34:00;;;;;;;;;11.00;11.00;;;30.59;97656.11;;;;119391;1186;24723;-66
2022/08/05 09:36:50;;;;;;;;;6.50;5.75;;;30.55;97655.77;;;;119379;1187;24884;-62
2022/08/05 09:39:23;;;;;;;;;14.25;14.25;;;30.59;97649.71;;;;119385;1186;26122;-64
2022/08/05 09:42:20;;;;;;;;;13.00;12.67;;;30.70;97643.56;;;;119384;1186;25339;-60
2022/08/05 09:44:55;;;;;;;;;14.25;12.00;;;30.70;97644.11;;;;119396;1186;25420;-61
2022/08/05 09:47:43;;;;;;;;;14.00;12.50;;;30.72;97642.14;;;;119368;1186;26355;-61
2022/08/05 09:50:34;;;;;;;;;12.25;11.00;;;30.72;97646.77;;;;119385;1186;25015;-63
2022/08/05 09:53:11;;;;;;;;;13.33;9.33;;;30.74;97644.95;;;;119336;1186;25413;-61
2022/08/05 09:55:51;;;;;;;;;11.50;9.00;;;30.73;97638.77;;;;119382;1186;25796;-64
2022/08/05 09:58:26;;;;;;;;;11.50;11.00;;;30.69;97638.07;;;;119365;1186;25874;-60
2022/08/05 10:00:58;;;;;;;;;12.00;10.00;;;30.63;97637.08;;;;119392;1186;25849;-68
2022/08/05 10:03:28;;;;;;;;;12.75;10.00;;;30.61;97635.14;;;;119380;1186;24800;-65
2022/08/05 10:06:18;;;;;;;;;11.25;11.25;;;30.67;97633.42;;;;119388;1186;25050;-64
2022/08/05 10:08:47;;;;;;;;;9.25;9.25;;;30.68;97631.69;;;;119349;1186;24769;-64
2022/08/05 10:11:22;;;;;;;;;17.33;13.33;;;30.64;97630.52;;;;119373;1186;25284;-62
2022/08/05 10:13:50;;;;;;;;;16.00;10.25;;;30.63;97626.48;;;;119362;1186;25629;-62
2022/08/05 10:16:35;;;;;;;;;24.50;18.25;;;30.59;97624.11;;;;119384;1186;25977;-64
2022/08/05 10:19:19;;;;;;;;;20.75;17.25;;;30.65;97619.13;;;;119366;1186;25085;-65
2022/08/05 10:21:58;;;;;;;;;20.75;17.25;;;30.67;97619.23;;;;119366;1187;25183;-64
2022/08/05 10:24:27;;;;;;;;;18.25;15.50;;;30.62;97614.23;;;;119391;1186;25040;-63
2022/08/05 10:26:55;;;;;;;;;17.75;13.50;;;30.61;97614.25;;;;119365;1186;25426;-64
2022/08/05 10:29:31;;;;;;;;;22.25;15.75;;;30.62;97613.48;;;;119341;1186;26272;-71
2022/08/05 10:32:37;;;;;;;;;14.00;12.00;;;30.70;97606.39;;;;119416;1187;25611;-66
2022/08/05 10:35:26;;;;;;;;;18.75;16.00;;;30.75;97605.23;;;;119368;1185;25191;-70
2022/08/05 10:38:07;;;;;;;;;13.25;12.00;;;30.76;97607.91;;;;119414;1186;25164;-65
2022/08/05 10:40:45;;;;;;;;;14.75;10.25;;;30.72;97605.36;;;;119384;1187;25649;-66
2022/08/05 10:43:39;;;;;;;;;11.25;11.25;;;30.66;97596.97;;;;119383;1186;25062;-62
2022/08/05 10:46:12;;;;;;;;;9.50;9.50;;;30.70;97596.43;;;;119383;1186;24970;-62
2022/08/05 10:48:41;;;;;;;;;11.25;10.50;;;30.62;97596.04;;;;119361;1186;26439;-74
2022/08/05 10:51:25;;;;;;;;;11.00;11.00;;;30.68;97593.50;;;;119413;1187;25638;-66
2022/08/05 10:53:58;;;;;;;;;9.75;9.75;;;30.70;97591.40;;;;119268;1187;24906;-65
2022/08/05 10:56:54;;;;;;;;;11.50;11.25;;;30.67;97592.85;;;;119350;1186;25680;-62
2022/08/05 10:59:28;;;;;;;;;10.25;9.50;;;30.71;97588.83;;;;119371;1186;25416;-66
2022/08/05 11:02:20;;;;;;;;;10.50;9.50;;;30.77;97587.27;;;;119459;1186;26425;-60
2022/08/05 11:05:08;;;;;;;;;7.50;7.50;;;30.78;97584.16;;;;119436;1186;25462;-62
2022/08/05 11:07:56;;;;;;;;;11.00;10.00;;;30.72;97587.10;;;;119319;1186;25611;-60
2022/08/05 11:10:37;;;;;;;;;9.25;9.25;;;30.72;97587.27;;;;119382;1187;24960;-63
2022/08/05 11:13:38;;;;;;;;;9.50;7.50;;;30.76;97585.77;;;;119380;1185;25333;-64
2022/08/05 11:16:22;;;;;;;;;8.00;8.00;;;30.91;97587.17;;;;119385;1186;25796;-68
2022/08/05 11:19:28;;;;;;;;;8.25;8.25;;;31.02;97585.04;;;;119410;1186;26060;-61
2022/08/05 11:22:43;;;;;;;;;11.00;11.00;;;31.08;97583.17;;;;119397;1186;25292;-63
2022/08/05 11:25:29;;;;;;;;;7.75;7.75;;;31.23;97574.00;;;;119419;1185;25388;-65
2022/08/05 11:28:17;;;;;;;;;9.25;9.25;;;31.39;97576.39;;;;119370;1186;25900;-64
2022/08/05 11:30:54;;;;;;;;;9.67;8.67;;;31.33;97574.48;;;;119411;1186;24992;-63
2022/08/05 11:33:47;;;;;;;;;8.50;8.00;;;31.31;97571.58;;;;119384;1185;25437;-63
2022/08/05 11:36:36;;;;;;;;;10.50;10.50;;;31.34;97564.79;;;;119377;1186;25938;-62
2022/08/05 11:39:13;;;;;;;;;9.00;8.25;;;31.49;97559.88;;;;119342;1187;25509;-61
2022/08/05 11:41:50;;;;;;;;;8.00;8.00;;;31.56;97558.00;;;;119386;1186;24749;-62
2022/08/05 11:44:37;;;;;;;;;11.25;10.00;;;31.64;97551.81;;;;119396;1186;25252;-62
2022/08/05 11:47:22;;;;;;;;;9.50;7.50;;;31.71;97549.46;;;;119353;1186;25907;-63
2022/08/05 11:50:10;;;;;;;;;8.25;7.50;;;31.77;97546.34;;;;119389;1187;25646;-63
2022/08/05 11:52:41;;;;;;;;;12.50;9.50;;;31.79;97548.27;;;;119390;1186;25801;-67
2022/08/05 11:55:13;;;;;;;;;11.75;9.00;;;31.76;97549.65;;;;119361;1186;24946;-63
2022/08/05 11:57:45;;;;;;;;;10.50;9.75;;;31.76;97555.97;;;;119406;1187;25552;-63
2022/08/05 12:00:33;;;;;;;;;9.25;8.00;;;31.84;97556.86;;;;119421;1186;25127;-64
2022/08/05 12:03:20;;;;;;;;;10.75;10.75;;;31.93;97557.69;;;;119396;1186;25527;-59
2022/08/05 12:06:03;;;;;;;;;9.00;9.00;;;32.00;97554.76;;;;119373;1187;25736;-67
2022/08/05 12:08:40;;;;;;;;;11.50;10.00;;;32.01;97554.17;;;;119410;1187;25121;-60
2022/08/05 12:11:22;;;;;;;;;8.67;8.33;;;32.05;97550.45;;;;119433;1186;25180;-56
2022/08/05 12:14:01;;;;;;;;;8.25;7.00;;;32.02;97548.11;;;;119467;1186;25645;-57
2022/08/05 12:16:35;;;;;;;;;8.25;8.25;;;32.02;97549.11;;;;119438;1186;24964;-64
2022/08/05 12:19:06;;;;;;;;;8.50;6.75;;;32.00;97545.49;;;;119608;1183;25521;-64
2022/08/05 12:21:42;;;;;;;;;9.00;8.50;;;32.02;97543.41;;;;119428;1186;25096;-61
2022/08/05 12:24:16;;;;;;;;;8.50;7.50;;;32.15;97541.88;;;;119374;1186;25829;-61
2022/08/05 12:26:49;;;;;;;;;10.00;9.25;;;32.19;97535.58;;;;119429;1186;26035;-63
2022/08/05 12:29:22;;;;;;;;;9.00;9.00;;;32.23;97538.90;;;;119386;1187;26062;-62
2022/08/05 12:31:57;;;;;;;;;9.50;9.00;;;32.24;97539.68;;;;119387;1185;26418;-63
2022/08/05 12:34:33;;;;;;;;;11.75;9.75;;;32.28;97533.91;;;;119448;1186;24869;-57
2022/08/05 12:37:09;;;;;;;;;11.67;9.33;;;32.33;97535.77;;;;119398;1186;25693;-58
2022/08/05 12:39:44;;;;;;;;;8.50;8.50;;;32.37;97532.61;;;;119364;1187;26387;-60
2022/08/05 12:42:20;;;;;;;;;9.50;9.50;;;32.39;97522.80;;;;119365;1186;25720;-59
2022/08/05 12:44:51;;;;;;;;;8.00;7.75;;;32.41;97517.34;;;;119349;1187;26382;-62
2022/08/05 12:47:29;;;;;;;;;7.00;7.00;;;32.42;97512.30;;;;119374;1186;25369;-67
2022/08/05 12:49:59;;;;;;;;;7.25;6.00;;;32.44;97507.94;;;;119293;1187;25928;-65